Huvudsida
METAR-TAF:

METAR-TAF

Flygplatser :

Kittilä flygplats

Kittilä, Finland

latitud: 67-42N, longitud: 024-51E, höjd: 196 m

Aktuellt väderrapport

Denna rapport gjordes för 19 minuter sedan, klockan 20:20 UTC
Vind 3 kt från sydväst
Temperatur -20°C
Fuktighet 84%
Tryck 1012 hPa
Sikt 10 km eller mer
Inga moln under 1 500 m eller inga cumulonimbus

METAR: EFKT 262020Z 23003KT CAVOK M20/M22 Q1012

Tid: 22:39 (20:39 UTC)

Väderprognos

Denna rapport gjordes för 3 timmar och 6 minuter sedan, klockan 17:33 UTC
Prognos gäller från 26 kl. 18 UTC till 26 kl. 22 UTC
Vind 7 kt från väst/sydväst
Sikt 10 km eller mer
Inga moln under 1 500 m eller inga cumulonimbus

TAF: EFKT 261733Z 2618/2622 25007KT CAVOK

Aktuella väderrapporter och prognoser från 4000 flygplatser (METAR- och TAF-rapporter).

De tillgängliga stationerna syns som gula och röda prickar på kartan.

För musen över prickarna för att se namnen på stationerna.

Klicka sedan för att få väderrapporter och prognoser.

För att ändra kartan: Klicka på de gröna knapparna med ett svart kors på för att zooma in; den gröna knappen med ett streck på för att zooma ut; eller på de gröna pilarna för angränsande kartor.


METAR-TAF: